Time;durP1;ratioP1;P1;durP2;ratioP2;P2;SDS_P1;SDS_P2;PMS_P1;PMS_P2;Temp;Humidity;BMP_temperature;BMP_pressure;BME280_temperature;BME280_humidity;BME280_pressure;Samples;Min_cycle;Max_cycle;Signal;HPM_P1;HPM_P2
2023/07/11 00:01:16;;;;;;;8.43;4.22;;;;;;;27.75;44.27;99626.66;4434847;32;33826;-64
2023/07/11 00:03:44;;;;;;;11.80;4.78;;;;;;;27.73;44.59;99621.38;4431875;32;34310;-65
2023/07/11 00:06:16;;;;;;;7.45;3.78;;;;;;;27.73;44.41;99621.38;4434675;32;33908;-64
2023/07/11 00:08:43;;;;;;;7.07;3.83;;;;;;;27.75;44.65;99621.16;4435790;32;33934;-64
2023/07/11 00:11:14;;;;;;;11.02;3.58;;;;;;;27.79;44.63;99622.38;4435058;32;34905;-64
2023/07/11 00:13:42;;;;;;;6.93;3.70;;;;;;;27.81;44.58;99617.50;4436120;32;33422;-66
2023/07/11 00:16:11;;;;;;;8.23;4.57;;;;;;;27.74;44.71;99616.72;4434934;32;34693;-66
2023/07/11 00:18:39;;;;;;;13.45;4.75;;;;;;;27.74;44.83;99616.72;4426503;32;33606;-66
2023/07/11 00:21:07;;;;;;;11.40;4.97;;;;;;;27.76;45.06;99617.31;4434736;32;33731;-66
2023/07/11 00:23:35;;;;;;;11.27;4.80;;;;;;;27.61;45.72;99618.56;4435037;32;33279;-66
2023/07/11 00:26:03;;;;;;;12.75;5.40;;;;;;;27.67;45.57;99619.53;4434999;32;33918;-66
2023/07/11 00:28:32;;;;;;;10.60;5.10;;;;;;;27.45;46.08;99616.41;4433341;32;34917;-65
2023/07/11 00:31:00;;;;;;;9.52;4.18;;;;;;;27.56;46.01;99612.91;4434213;32;33608;-65
2023/07/11 00:33:29;;;;;;;7.80;4.18;;;;;;;27.72;45.73;99605.09;4433835;32;33275;-66
2023/07/11 00:35:57;;;;;;;7.97;4.57;;;;;;;27.71;45.82;99598.78;4434219;32;33568;-66
2023/07/11 00:38:25;;;;;;;8.45;4.25;;;;;;;27.68;45.79;99606.66;4434665;32;33349;-66
2023/07/11 00:40:53;;;;;;;7.12;4.85;;;;;;;27.66;45.93;99592.28;4435998;32;33786;-66
2023/07/11 00:43:21;;;;;;;11.10;5.25;;;;;;;27.66;45.98;99589.53;4434821;32;33270;-66
2023/07/11 00:46:03;;;;;;;7.43;4.68;;;;;;;27.66;45.97;99600.53;4433954;32;33758;-66
2023/07/11 00:48:34;;;;;;;11.93;4.35;;;;;;;27.59;46.30;99601.44;4433662;32;34764;-66
2023/07/11 00:51:03;;;;;;;8.43;4.80;;;;;;;27.59;46.17;99590.44;4433722;32;33912;-66
2023/07/11 00:53:31;;;;;;;8.18;4.65;;;;;;;27.57;46.19;99587.06;4435474;32;34107;-66
2023/07/11 00:56:03;;;;;;;6.80;4.50;;;;;;;27.60;46.13;99597.63;4435334;32;33828;-66
2023/07/11 00:58:32;;;;;;;7.90;4.43;;;;;;;27.42;46.65;99581.16;4431651;32;35256;-66
2023/07/11 01:01:00;;;;;;;6.55;4.20;;;;;;;27.37;46.88;99583.72;4432237;32;34261;-66
2023/07/11 01:03:27;;;;;;;14.35;5.45;;;;;;;27.37;46.95;99589.22;4444117;32;33306;-66
2023/07/11 01:05:56;;;;;;;8.82;4.90;;;;;;;27.34;46.85;99593.25;4421871;32;33594;-66
2023/07/11 01:08:24;;;;;;;14.18;5.50;;;;;;;27.23;46.94;99591.28;4434088;32;33953;-64
2023/07/11 01:10:52;;;;;;;5.70;3.60;;;;;;;27.08;47.11;99585.25;4434030;32;33266;-66
2023/07/11 01:13:20;;;;;;;8.32;4.70;;;;;;;27.23;46.72;99591.28;4424996;32;34194;-65
2023/07/11 01:15:49;;;;;;;9.95;4.65;;;;;;;27.26;46.47;99585.31;4434909;32;33543;-62
2023/07/11 01:18:16;;;;;;;8.85;4.18;;;;;;;27.32;46.08;99584.41;4434033;32;34241;-62
2023/07/11 01:20:44;;;;;;;7.70;4.78;;;;;;;27.22;45.57;99580.50;4434368;32;34680;-62
2023/07/11 01:23:11;;;;;;;12.65;4.90;;;;;;;27.20;45.75;99578.00;4434416;32;33095;-63
2023/07/11 01:25:40;;;;;;;10.68;5.55;;;;;;;27.23;45.52;99580.28;4434828;32;33860;-63
2023/07/11 01:28:07;;;;;;;8.02;3.92;;;;;;;27.24;45.82;99576.47;4434521;32;34522;-63
2023/07/11 01:30:35;;;;;;;7.75;4.47;;;;;;;27.25;45.52;99577.28;4432788;32;34633;-63
2023/07/11 01:33:03;;;;;;;5.93;3.62;;;;;;;27.35;45.36;99574.84;4430079;32;34222;-63
2023/07/11 01:35:31;;;;;;;7.12;3.70;;;;;;;27.42;44.97;99567.41;4433418;32;35010;-63
2023/07/11 01:37:59;;;;;;;6.97;4.40;;;;;;;27.33;44.91;99572.34;4435211;32;35176;-63
2023/07/11 01:40:26;;;;;;;5.72;3.37;;;;;;;27.35;44.75;99564.72;4435244;32;35024;-63
2023/07/11 01:42:54;;;;;;;7.57;3.80;;;;;;;27.24;44.89;99564.63;4437089;32;34389;-63
2023/07/11 01:45:22;;;;;;;6.20;3.85;;;;;;;27.45;44.38;99566.94;4437126;32;35189;-63
2023/07/11 01:47:50;;;;;;;7.28;3.87;;;;;;;27.40;44.16;99566.78;4436637;32;33991;-63
2023/07/11 01:50:19;;;;;;;6.82;4.20;;;;;;;27.51;43.90;99565.16;4437019;32;34938;-63
2023/07/11 01:52:46;;;;;;;7.95;4.15;;;;;;;27.21;44.34;99559.59;4436068;32;33512;-63
2023/07/11 01:55:14;;;;;;;8.38;4.47;;;;;;;27.52;43.56;99555.88;4434911;32;33827;-63
2023/07/11 01:57:41;;;;;;;9.38;3.70;;;;;;;27.50;43.56;99552.50;4437546;32;33798;-63
2023/07/11 02:00:10;;;;;;;5.28;3.35;;;;;;;27.63;43.56;99555.91;4433218;32;33089;-63
2023/07/11 02:02:38;;;;;;;6.05;3.58;;;;;;;27.58;43.81;99555.78;4436619;32;33000;-63
2023/07/11 02:05:06;;;;;;;7.40;3.83;;;;;;;27.64;43.30;99554.88;4437374;32;33590;-63
2023/07/11 02:07:35;;;;;;;6.07;3.55;;;;;;;27.45;43.57;99553.19;4447358;32;32322;-62
2023/07/11 02:10:03;;;;;;;7.40;4.18;;;;;;;27.48;43.63;99552.75;4434613;32;33500;-63
2023/07/11 02:12:31;;;;;;;12.00;4.15;;;;;;;27.40;43.55;99547.53;4436776;32;33415;-62
2023/07/11 02:14:58;;;;;;;6.60;3.80;;;;;;;27.49;43.54;99550.84;4436245;32;33991;-63
2023/07/11 02:17:26;;;;;;;7.60;4.12;;;;;;;27.54;43.61;99560.03;4435913;32;33588;-64
2023/07/11 02:19:54;;;;;;;7.45;4.10;;;;;;;27.52;43.63;99556.72;4436460;32;33609;-64
2023/07/11 02:22:22;;;;;;;12.68;5.43;;;;;;;27.50;43.84;99558.84;4436112;32;33416;-64
2023/07/11 02:24:50;;;;;;;6.43;3.40;;;;;;;27.54;43.67;99551.81;4436648;32;33672;-63
2023/07/11 02:27:17;;;;;;;8.88;4.10;;;;;;;27.32;44.02;99550.59;4435349;32;34251;-64
2023/07/11 02:29:45;;;;;;;4.82;3.37;;;;;;;27.43;43.94;99546.25;4434193;32;33608;-63
2023/07/11 02:32:12;;;;;;;8.30;3.53;;;;;;;27.49;43.88;99539.84;4435104;32;33242;-64
2023/07/11 02:34:40;;;;;;;7.12;3.95;;;;;;;27.22;44.52;99544.78;4436122;32;34792;-64
2023/07/11 02:37:07;;;;;;;9.65;4.25;;;;;;;27.04;44.99;99549.16;4435553;32;33678;-63
2023/07/11 02:39:35;;;;;;;6.28;3.47;;;;;;;27.41;44.33;99549.22;4436444;32;34639;-63
2023/07/11 02:42:05;;;;;;;8.52;3.80;;;;;;;27.33;44.61;99544.88;4435680;32;33200;-64
2023/07/11 02:44:32;;;;;;;6.75;3.78;;;;;;;27.10;44.89;99553.75;4435836;32;35182;-64
2023/07/11 02:47:00;;;;;;;6.12;3.33;;;;;;;26.91;45.26;99547.41;4434783;32;33911;-63
2023/07/11 02:49:27;;;;;;;7.72;3.58;;;;;;;27.17;44.80;99545.47;4434914;32;33850;-63
2023/07/11 02:51:55;;;;;;;6.50;3.53;;;;;;;27.10;44.90;99552.91;4436142;32;33032;-63
2023/07/11 02:54:22;;;;;;;7.05;3.80;;;;;;;27.21;44.80;99549.44;4436798;32;34499;-64
2023/07/11 02:56:50;;;;;;;7.25;4.35;;;;;;;27.14;45.12;99544.03;4436741;32;33957;-63
2023/07/11 02:59:17;;;;;;;8.40;4.50;;;;;;;27.01;45.46;99557.88;4434405;32;32857;-64
2023/07/11 03:01:45;;;;;;;5.87;3.60;;;;;;;27.08;45.43;99555.03;4434446;32;33135;-63
2023/07/11 03:04:13;;;;;;;8.38;4.05;;;;;;;26.99;45.86;99548.16;4436045;32;33866;-64
2023/07/11 03:06:40;;;;;;;7.03;4.55;;;;;;;26.87;46.22;99559.03;4436025;32;33730;-64
2023/07/11 03:09:08;;;;;;;8.07;3.90;;;;;;;26.95;46.14;99567.84;4434958;32;34688;-64
2023/07/11 03:11:36;;;;;;;6.80;3.90;;;;;;;26.93;46.42;99563.62;4433281;32;33082;-64
2023/07/11 03:14:03;;;;;;;6.70;4.12;;;;;;;26.67;47.03;99565.53;4436528;32;34288;-63
2023/07/11 03:16:31;;;;;;;6.65;3.87;;;;;;;26.41;47.78;99563.81;4435515;32;34931;-63
2023/07/11 03:19:00;;;;;;;7.55;3.95;;;;;;;26.38;48.07;99567.00;4435442;32;33564;-64
2023/07/11 03:21:28;;;;;;;7.40;3.67;;;;;;;26.38;48.15;99567.00;4436093;32;33150;-63
2023/07/11 03:23:55;;;;;;;8.50;4.03;;;;;;;26.21;48.52;99560.38;4433763;32;35031;-63
2023/07/11 03:26:23;;;;;;;7.65;3.75;;;;;;;26.66;47.50;99563.03;4434610;32;35440;-63
2023/07/11 03:28:50;;;;;;;9.77;4.12;;;;;;;26.65;47.53;99564.09;4435784;32;33565;-63
2023/07/11 03:31:18;;;;;;;7.30;3.67;;;;;;;26.28;48.37;99568.56;4435697;32;33319;-62
2023/07/11 03:33:46;;;;;;;5.78;3.15;;;;;;;26.52;48.03;99566.94;4433425;32;33766;-63
2023/07/11 03:36:14;;;;;;;8.40;4.47;;;;;;;26.80;47.34;99569.25;4432489;32;33747;-64
2023/07/11 03:38:41;;;;;;;5.57;3.85;;;;;;;26.61;47.92;99571.09;4436225;32;33447;-63
2023/07/11 03:41:09;;;;;;;6.72;4.12;;;;;;;26.78;47.56;99568.66;4436211;32;33258;-63
2023/07/11 03:43:36;;;;;;;6.97;3.78;;;;;;;26.50;48.28;99575.41;4435718;32;33582;-63
2023/07/11 03:46:04;;;;;;;5.93;3.45;;;;;;;26.81;47.61;99568.19;4434906;32;35163;-63
2023/07/11 03:48:32;;;;;;;8.30;4.18;;;;;;;26.91;47.39;99574.84;4435689;32;32901;-63
2023/07/11 03:51:00;;;;;;;7.80;3.78;;;;;;;26.59;48.15;99568.59;4435903;32;34278;-63
2023/07/11 03:53:28;;;;;;;6.53;3.87;;;;;;;26.65;48.34;99570.44;4433053;32;33717;-63
2023/07/11 03:55:55;;;;;;;8.60;4.15;;;;;;;26.76;48.25;99574.34;4429278;32;35341;-63
2023/07/11 03:58:24;;;;;;;5.65;3.12;;;;;;;26.84;48.14;99576.81;4446570;32;34934;-63
2023/07/11 04:00:52;;;;;;;8.57;4.10;;;;;;;27.09;47.39;99576.78;4429488;32;32790;-64
2023/07/11 04:03:20;;;;;;;5.45;3.65;;;;;;;26.90;47.99;99586.03;4435707;32;34389;-63
2023/07/11 04:05:48;;;;;;;7.68;4.57;;;;;;;26.86;48.15;99585.66;4435643;32;33939;-63
2023/07/11 04:08:16;;;;;;;5.12;3.08;;;;;;;26.43;49.55;99585.56;4435135;32;34895;-63
2023/07/11 04:10:44;;;;;;;7.25;3.40;;;;;;;26.68;48.91;99582.87;4437044;32;33973;-63
2023/07/11 04:13:11;;;;;;;9.98;4.65;;;;;;;26.75;48.73;99588.31;4435346;32;33954;-63
2023/07/11 04:15:39;;;;;;;10.00;4.65;;;;;;;26.56;49.22;99590.16;4434216;32;34237;-63
2023/07/11 04:18:06;;;;;;;12.85;4.40;;;;;;;26.92;48.65;99594.91;4435981;32;34308;-64
2023/07/11 04:20:35;;;;;;;6.22;3.95;;;;;;;26.67;49.13;99592.16;4442774;32;34609;-64
2023/07/11 04:23:03;;;;;;;6.05;3.42;;;;;;;26.75;48.90;99586.41;4434314;32;34049;-64
2023/07/11 04:25:30;;;;;;;7.95;4.22;;;;;;;26.76;49.07;99600.97;4435151;32;33816;-62
2023/07/11 04:27:58;;;;;;;6.62;3.60;;;;;;;26.77;49.19;99592.50;4433578;32;33996;-61
2023/07/11 04:30:25;;;;;;;7.37;3.97;;;;;;;27.06;48.29;99590.13;4427258;32;33407;-63
2023/07/11 04:32:53;;;;;;;8.00;4.28;;;;;;;27.01;48.60;99596.31;4434691;32;33230;-62
2023/07/11 04:35:21;;;;;;;10.93;4.57;;;;;;;27.37;47.55;99598.31;4435249;32;34200;-62
2023/07/11 04:37:48;;;;;;;12.13;5.55;;;;;;;27.57;47.17;99599.97;4432719;32;33896;-62
2023/07/11 04:40:16;;;;;;;6.90;4.50;;;;;;;27.33;47.81;99604.50;4433731;32;33091;-62
2023/07/11 04:42:44;;;;;;;8.90;4.90;;;;;;;27.45;47.57;99613.66;4435741;32;34730;-62
2023/07/11 04:45:11;;;;;;;5.80;3.58;;;;;;;27.66;47.17;99604.13;4435401;32;33863;-63
2023/07/11 04:47:39;;;;;;;7.97;4.68;;;;;;;27.98;46.47;99604.78;4433271;32;34555;-62
2023/07/11 04:50:07;;;;;;;9.20;4.12;;;;;;;27.93;46.90;99604.66;4435498;32;33326;-62
2023/07/11 04:52:35;;;;;;;7.43;3.58;;;;;;;28.15;46.23;99598.66;4432051;32;33748;-62
2023/07/11 04:55:03;;;;;;;9.48;4.35;;;;;;;28.22;46.12;99604.87;4431237;32;33875;-63
2023/07/11 04:57:30;;;;;;;6.85;4.00;;;;;;;28.30;46.07;99610.09;4434348;32;33546;-63
2023/07/11 04:59:58;;;;;;;6.72;4.55;;;;;;;27.91;46.44;99601.31;4435594;32;33119;-63
2023/07/11 05:02:26;;;;;;;8.50;4.68;;;;;;;28.35;45.59;99607.47;4432703;32;35097;-62
2023/07/11 05:04:54;;;;;;;9.90;4.87;;;;;;;28.21;46.02;99603.22;4434378;32;34651;-62
2023/07/11 05:07:21;;;;;;;8.45;4.70;;;;;;;28.16;46.22;99601.19;4433787;32;35324;-63
2023/07/11 05:09:49;;;;;;;8.45;4.43;;;;;;;28.19;45.73;99606.22;4436245;32;33547;-63
2023/07/11 05:12:19;;;;;;;8.98;4.68;;;;;;;28.33;45.36;99604.94;4435805;32;33790;-62
2023/07/11 05:14:47;;;;;;;9.48;5.37;;;;;;;28.29;45.54;99611.16;4427625;32;33887;-63
2023/07/11 05:17:15;;;;;;;6.35;4.20;;;;;;;28.22;45.78;99605.75;4435505;32;33583;-63
2023/07/11 05:19:43;;;;;;;7.93;4.65;;;;;;;28.46;45.35;99612.19;4435146;32;33307;-62
2023/07/11 05:22:11;;;;;;;7.25;4.78;;;;;;;28.20;46.14;99607.91;4435751;32;34527;-62
2023/07/11 05:24:38;;;;;;;5.95;3.95;;;;;;;27.96;46.53;99606.97;4436014;32;33744;-62
2023/07/11 05:27:06;;;;;;;8.05;4.72;;;;;;;28.13;46.01;99609.91;4435861;32;34277;-62
2023/07/11 05:29:35;;;;;;;10.18;5.20;;;;;;;28.53;45.26;99612.94;4435213;32;33208;-63
2023/07/11 05:32:04;;;;;;;8.98;4.50;;;;;;;28.87;44.41;99617.94;4435294;32;33575;-63
2023/07/11 05:34:31;;;;;;;9.10;5.43;;;;;;;29.03;44.54;99614.50;4435212;32;35623;-63
2023/07/11 05:37:03;;;;;;;6.50;4.22;;;;;;;29.01;44.74;99614.72;4436063;32;34067;-63
2023/07/11 05:39:31;;;;;;;8.15;4.57;;;;;;;28.28;45.60;99620.47;4436471;32;34616;-64
2023/07/11 05:41:59;;;;;;;10.35;5.87;;;;;;;28.66;44.71;99622.06;4434549;32;33519;-64
2023/07/11 05:44:27;;;;;;;9.60;4.82;;;;;;;28.92;44.53;99623.53;4428815;32;35016;-64
2023/07/11 05:46:54;;;;;;;8.82;4.85;;;;;;;28.97;44.35;99624.53;4435008;32;33699;-63
2023/07/11 05:49:22;;;;;;;13.02;4.57;;;;;;;28.87;44.74;99635.28;4436019;32;34420;-63
2023/07/11 05:51:50;;;;;;;11.25;5.12;;;;;;;28.83;44.86;99625.84;4433829;32;34019;-63
2023/07/11 05:54:19;;;;;;;9.13;5.80;;;;;;;28.32;45.95;99632.72;4435524;32;34778;-63
2023/07/11 05:56:46;;;;;;;9.95;4.85;;;;;;;28.65;45.32;99631.41;4435439;32;33653;-64
2023/07/11 05:59:14;;;;;;;7.22;4.50;;;;;;;28.83;45.03;99636.84;4436040;32;33113;-63
2023/07/11 06:01:42;;;;;;;7.07;4.25;;;;;;;28.79;45.29;99639.22;4432191;32;33757;-63
2023/07/11 06:04:11;;;;;;;9.20;4.68;;;;;;;28.55;46.28;99635.56;4434656;32;33910;-64
2023/07/11 06:06:43;;;;;;;9.40;4.78;;;;;;;29.06;44.34;99638.81;4434950;32;34566;-63
2023/07/11 06:09:17;;;;;;;10.15;4.62;;;;;;;27.84;47.28;99641.81;4421175;32;33116;-64
2023/07/11 06:11:46;;;;;;;9.57;4.70;;;;;;;27.55;48.08;99638.72;4425305;32;33784;-63
2023/07/11 06:14:14;;;;;;;10.85;5.78;;;;;;;28.02;46.95;99638.19;4444093;32;32749;-64
2023/07/11 06:16:42;;;;;;;7.72;4.53;;;;;;;28.41;46.13;99636.84;4431952;32;33913;-64
2023/07/11 06:19:10;;;;;;;7.10;4.68;;;;;;;28.14;47.18;99636.34;4433206;32;34621;-63
2023/07/11 06:21:37;;;;;;;9.07;4.75;;;;;;;28.16;46.74;99633.38;4435167;32;33720;-63
2023/07/11 06:24:05;;;;;;;9.63;5.30;;;;;;;27.62;47.45;99647.72;4435324;32;34445;-63
2023/07/11 06:26:33;;;;;;;6.80;4.07;;;;;;;27.10;48.41;99647.16;4435231;32;34085;-63
2023/07/11 06:29:01;;;;;;;9.70;4.45;;;;;;;27.64;46.96;99642.84;4435747;32;33518;-63
2023/07/11 06:31:28;;;;;;;6.40;4.40;;;;;;;27.93;46.80;99645.06;4434519;32;33766;-63
2023/07/11 06:33:56;;;;;;;6.25;3.90;;;;;;;28.40;45.91;99651.66;4433312;32;35115;-63
2023/07/11 06:36:24;;;;;;;7.53;4.95;;;;;;;28.64;45.26;99651.78;4434600;32;33497;-64
2023/07/11 06:38:51;;;;;;;6.68;4.55;;;;;;;28.60;45.36;99645.03;4437353;32;33016;-63
2023/07/11 06:41:19;;;;;;;11.38;4.53;;;;;;;28.52;45.69;99654.47;4437691;32;33727;-63
2023/07/11 06:43:46;;;;;;;6.53;4.15;;;;;;;29.24;44.37;99657.16;4436466;32;34939;-63
2023/07/11 06:46:14;;;;;;;8.35;5.20;;;;;;;29.23;44.21;99648.06;4435044;32;33641;-63
2023/07/11 06:48:42;;;;;;;14.02;11.15;;;;;;;29.11;44.16;99655.47;4436393;32;33280;-63
2023/07/11 06:51:10;;;;;;;8.43;4.50;;;;;;;28.78;44.16;99656.00;4436038;32;33708;-63
2023/07/11 06:53:38;;;;;;;6.00;3.78;;;;;;;29.07;43.82;99657.03;4436290;32;34260;-63
2023/07/11 06:56:05;;;;;;;9.55;4.78;;;;;;;29.10;43.97;99659.31;4434130;32;33545;-63
2023/07/11 06:58:34;;;;;;;8.23;5.12;;;;;;;29.16;44.27;99652.84;4435929;32;33231;-63
2023/07/11 07:01:04;;;;;;;8.32;5.50;;;;;;;28.91;45.00;99655.78;4432065;32;34281;-63
2023/07/11 07:03:42;;;;;;;10.15;4.75;;;;;;;28.71;44.40;99658.84;4437173;32;34271;-64
2023/07/11 07:06:12;;;;;;;7.78;4.20;;;;;;;28.04;46.32;99652.56;4435343;32;33645;-62
2023/07/11 07:08:40;;;;;;;8.10;4.93;;;;;;;28.25;45.75;99641.06;4436334;32;34181;-63
2023/07/11 07:11:09;;;;;;;7.70;4.37;;;;;;;28.22;45.84;99652.53;4433666;32;33656;-63
2023/07/11 07:13:37;;;;;;;8.10;5.20;;;;;;;28.61;45.39;99663.25;4437812;32;33809;-63
2023/07/11 07:16:15;;;;;;;11.23;4.78;;;;;;;28.05;46.58;99655.06;4435787;32;33522;-63
2023/07/11 07:18:44;;;;;;;6.57;3.87;;;;;;;28.02;46.10;99655.53;4437972;32;33488;-63
2023/07/11 07:21:11;;;;;;;8.88;5.10;;;;;;;28.01;46.34;99651.09;4435599;32;33894;-64
2023/07/11 07:23:40;;;;;;;10.82;4.78;;;;;;;28.05;46.78;99652.31;4437042;32;35019;-64
2023/07/11 07:26:08;;;;;;;13.57;4.55;;;;;;;28.36;46.62;99650.44;4437382;32;33243;-63
2023/07/11 07:28:35;;;;;;;7.97;4.45;;;;;;;28.54;46.17;99647.66;4431648;32;33932;-63
2023/07/11 07:31:05;;;;;;;8.43;5.12;;;;;;;29.05;45.47;99650.06;4433804;32;33644;-63
2023/07/11 07:33:34;;;;;;;8.40;5.00;;;;;;;28.95;45.74;99648.69;4436266;32;32406;-63
2023/07/11 07:36:04;;;;;;;8.27;4.85;;;;;;;28.85;45.13;99658.63;4435158;32;33763;-64
2023/07/11 07:38:32;;;;;;;8.77;5.28;;;;;;;29.21;44.50;99652.97;4446531;32;33710;-63
2023/07/11 07:41:07;;;;;;;7.62;4.85;;;;;;;28.56;46.24;99650.16;4435633;32;35039;-63
2023/07/11 07:43:39;;;;;;;9.10;5.75;;;;;;;28.99;45.97;99649.94;4435040;32;33889;-63
2023/07/11 07:46:06;;;;;;;8.90;5.78;;;;;;;29.18;45.70;99656.22;4434109;32;34777;-64
2023/07/11 07:48:34;;;;;;;19.52;6.25;;;;;;;28.87;46.32;99643.56;4434837;32;33450;-63
2023/07/11 07:51:06;;;;;;;8.75;5.18;;;;;;;29.38;46.54;99650.34;4417257;32;203504;-63
2023/07/11 07:53:34;;;;;;;10.02;5.85;;;;;;;29.58;45.28;99654.66;4425389;32;34780;-64
2023/07/11 07:56:12;;;;;;;8.15;5.30;;;;;;;29.60;45.44;99655.22;4436510;32;34914;-63
2023/07/11 07:58:40;;;;;;;9.30;5.03;;;;;;;29.44;46.02;99657.66;4434581;32;33132;-63
2023/07/11 08:01:13;;;;;;;8.65;5.80;;;;;;;29.65;45.91;99658.97;4433744;32;34150;-63
2023/07/11 08:03:41;;;;;;;11.48;6.95;;;;;;;29.53;44.77;99654.50;4436182;32;33628;-64
2023/07/11 08:06:10;;;;;;;7.15;5.12;;;;;;;29.87;44.19;99659.19;4435119;32;33790;-63
2023/07/11 08:08:44;;;;;;;;;;;;;;;30.08;43.65;99662.34;4434303;32;34344;-63
2023/07/11 08:11:12;;;;;;;7.72;5.22;;;;;;;29.83;42.36;99665.44;4436050;32;33767;-64
2023/07/11 08:13:40;;;;;;;8.65;6.00;;;;;;;29.87;43.10;99663.88;4430008;32;34255;-62
2023/07/11 08:16:27;;;;;;;9.07;5.68;;;;;;;29.66;42.91;99668.94;4433058;32;33862;-62
2023/07/11 08:19:04;;;;;;;7.95;4.75;;;;;;;30.16;42.13;99668.34;4434902;32;34426;-62
2023/07/11 08:21:35;;;;;;;7.13;5.17;;;;;;;29.92;41.70;99672.22;4430547;32;33402;-62
2023/07/11 08:24:06;;;;;;;10.05;5.07;;;;;;;29.76;42.46;99665.56;4435521;32;33983;-63
2023/07/11 08:26:34;;;;;;;9.80;6.22;;;;;;;29.58;42.10;99668.44;4436906;32;33330;-62
2023/07/11 08:29:01;;;;;;;7.43;5.22;;;;;;;29.93;41.58;99668.41;4431073;32;34198;-64
2023/07/11 08:31:47;;;;;;;9.13;5.53;;;;;;;30.08;41.16;99662.34;4433341;32;33624;-63
2023/07/11 08:34:15;;;;;;;12.37;6.97;;;;;;;30.18;40.32;99659.84;4436614;32;35062;-64
2023/07/11 08:36:44;;;;;;;9.82;5.75;;;;;;;29.80;40.33;99664.00;4433801;32;34609;-62
2023/07/11 08:39:12;;;;;;;8.00;5.45;;;;;;;30.12;41.68;99667.16;4435916;32;34535;-64
2023/07/11 08:41:43;;;;;;;9.75;5.12;;;;;;;30.00;41.73;99660.81;4437042;32;33642;-64
2023/07/11 08:44:17;;;;;;;9.43;5.32;;;;;;;30.24;40.48;99667.16;4434632;32;34151;-63
2023/07/11 08:46:46;;;;;;;;;;;;;;;29.84;40.58;99664.34;4445336;32;34875;-64
2023/07/11 08:49:23;;;;;;;10.68;5.10;;;;;;;30.21;40.32;99666.78;4447941;32;33148;-63
2023/07/11 08:51:53;;;;;;;7.97;4.90;;;;;;;29.88;39.13;99673.81;4398704;32;34585;-63
2023/07/11 08:54:32;;;;;;;9.95;6.32;;;;;;;30.02;39.03;99663.38;4399219;32;33680;-63
2023/07/11 08:57:00;;;;;;;9.07;6.07;;;;;;;30.30;38.94;99671.69;4410463;32;33142;-62
2023/07/11 08:59:46;;;;;;;6.72;4.75;;;;;;;29.57;39.10;99672.28;4402607;32;33312;-63
2023/07/11 09:02:52;;;;;;;10.75;4.90;;;;;;;30.23;39.64;99675.69;4397702;32;33582;-62
2023/07/11 09:05:35;;;;;;;7.65;4.03;;;;;;;30.75;37.51;99679.16;4386396;32;34364;-63
2023/07/11 09:08:03;;;;;;;9.27;5.57;;;;;;;30.01;38.29;99686.50;4375006;32;33549;-63
2023/07/11 09:10:44;;;;;;;10.00;5.45;;;;;;;30.44;37.45;99675.00;4388363;32;32856;-63
2023/07/11 09:14:07;;;;;;;7.80;5.18;;;;;;;30.44;38.04;99672.25;4387270;32;35313;-63
2023/07/11 09:16:52;;;;;;;8.90;5.80;;;;;;;30.51;37.45;99672.91;4327121;33;34038;-63
2023/07/11 09:19:29;;;;;;;8.45;4.75;;;;;;;31.21;36.79;99674.47;4327326;33;33763;-64
2023/07/11 09:21:56;;;;;;;9.48;5.03;;;;;;;31.26;36.99;99671.75;4334605;32;34049;-64
2023/07/11 09:24:47;;;;;;;8.32;5.57;;;;;;;31.52;35.90;99677.72;4371318;32;33573;-63
2023/07/11 09:27:14;;;;;;;7.43;4.65;;;;;;;30.95;36.49;99670.44;4370135;32;33308;-63
2023/07/11 09:29:45;;;;;;;9.90;5.72;;;;;;;30.54;37.28;99674.34;4371693;32;33642;-62
2023/07/11 09:32:13;;;;;;;8.55;5.12;;;;;;;30.57;37.95;99677.47;4368577;32;32942;-63
2023/07/11 09:34:50;;;;;;;7.07;5.10;;;;;;;30.83;36.54;99676.03;4371894;32;33332;-62
2023/07/11 09:37:42;;;;;;;10.32;5.90;;;;;;;31.69;34.98;99664.72;4368894;32;33755;-63
2023/07/11 09:40:34;;;;;;;8.57;5.78;;;;;;;31.88;35.36;99667.16;4392564;32;34880;-63
2023/07/11 09:43:03;;;;;;;8.00;4.50;;;;;;;31.95;34.81;99665.09;4398247;32;33813;-63
2023/07/11 09:45:36;;;;;;;10.52;5.37;;;;;;;32.18;32.64;99652.91;4401079;32;33589;-63
2023/07/11 09:48:19;;;;;;;7.30;4.00;;;;;;;31.89;34.21;99649.50;4403662;32;34007;-63
2023/07/11 09:51:10;;;;;;;12.10;5.75;;;;;;;31.43;34.12;99655.22;4399591;32;34507;-63
2023/07/11 09:53:43;;;;;;;8.18;4.40;;;;;;;32.40;32.56;99650.13;4423877;32;34186;-63
2023/07/11 09:56:13;;;;;;;8.55;5.65;;;;;;;32.42;33.29;99647.91;4427671;32;34851;-63
2023/07/11 09:58:49;;;;;;;8.60;6.20;;;;;;;32.09;33.74;99658.06;4428092;32;34033;-62
2023/07/11 10:01:17;;;;;;;;;;;;;;;32.38;33.31;99657.84;4426297;32;33755;-64
2023/07/11 10:03:47;;;;;;;8.88;6.07;;;;;;;32.34;32.80;99656.69;4434958;32;31573;-62
2023/07/11 10:06:27;;;;;;;9.02;6.10;;;;;;;32.40;33.33;99650.94;4430339;32;33888;-63
2023/07/11 10:09:22;;;;;;;8.60;5.80;;;;;;;32.33;33.12;99650.31;4421543;32;33996;-63
2023/07/11 10:11:57;;;;;;;15.00;5.82;;;;;;;32.69;33.78;99651.53;4428845;32;33689;-64
2023/07/11 10:14:32;;;;;;;8.93;5.05;;;;;;;32.65;32.25;99650.41;4433784;32;33500;-63
2023/07/11 10:17:16;;;;;;;11.23;5.70;;;;;;;32.92;33.32;99652.31;4428654;32;33282;-63
2023/07/11 10:19:46;;;;;;;12.63;6.93;;;;;;;33.07;32.16;99651.66;4426080;32;33709;-64
2023/07/11 10:22:20;;;;;;;7.97;5.37;;;;;;;32.98;32.53;99656.84;4426115;32;33827;-62
2023/07/11 10:24:48;;;;;;;8.68;5.93;;;;;;;32.87;32.90;99650.34;4431001;32;33124;-63
2023/07/11 10:27:23;;;;;;;9.82;5.95;;;;;;;32.52;33.13;99658.28;4431417;32;34772;-64
2023/07/11 10:29:54;;;;;;;8.85;6.18;;;;;;;32.57;32.87;99658.34;4415485;32;33686;-63
2023/07/11 10:32:42;;;;;;;8.02;5.75;;;;;;;33.15;32.49;99651.97;4433405;32;33167;-62
2023/07/11 10:35:18;;;;;;;11.57;5.43;;;;;;;32.70;31.96;99653.22;4417318;32;33206;-63
2023/07/11 10:37:49;;;;;;;8.48;5.40;;;;;;;32.73;32.99;99649.09;4414868;32;33637;-62
2023/07/11 10:40:21;;;;;;;9.82;6.22;;;;;;;32.44;32.33;99645.75;4403740;32;34915;-62
2023/07/11 10:43:10;;;;;;;;;;;;;;;33.10;32.61;99651.94;4417823;32;35130;-62
2023/07/11 10:45:41;;;;;;;9.13;5.68;;;;;;;32.87;32.92;99650.34;4417907;32;33212;-63
2023/07/11 10:48:20;;;;;;;9.38;6.35;;;;;;;32.40;33.00;99645.41;4403183;32;33540;-62
2023/07/11 10:50:54;;;;;;;8.70;6.43;;;;;;;32.54;32.79;99642.25;4421010;32;34870;-63
2023/07/11 10:53:29;;;;;;;9.27;4.93;;;;;;;32.76;33.23;99644.97;4418313;32;33599;-62
2023/07/11 10:56:07;;;;;;;8.38;5.43;;;;;;;33.20;31.87;99650.34;4416128;32;33181;-63
2023/07/11 10:58:35;;;;;;;11.43;6.50;;;;;;;33.20;31.65;99647.59;4410298;32;34557;-62
2023/07/11 11:01:18;;;;;;;9.15;6.15;;;;;;;33.04;31.30;99649.41;4430153;32;34825;-63
2023/07/11 11:03:47;;;;;;;9.60;5.90;;;;;;;32.29;32.83;99645.53;4419591;32;36313;-62
2023/07/11 11:06:51;;;;;;;11.68;6.70;;;;;;;32.60;32.39;99639.25;4428877;32;32680;-63
2023/07/11 11:09:35;;;;;;;12.63;6.87;;;;;;;33.17;32.64;99637.84;4426975;32;33688;-62
2023/07/11 11:12:12;;;;;;;;;;;;;;;33.00;31.93;99637.97;4428275;32;34922;-62
2023/07/11 11:15:07;;;;;;;8.93;6.60;;;;;;;32.97;32.29;99626.59;4434473;32;35256;-62
2023/07/11 11:17:55;;;;;;;9.00;6.47;;;;;;;32.82;33.67;99636.44;4447669;32;33883;-62
2023/07/11 11:21:11;;;;;;;11.48;6.97;;;;;;;33.38;32.20;99639.66;4436246;32;35051;-62
2023/07/11 11:24:16;;;;;;;8.00;6.20;;;;;;;33.06;33.00;99620.28;4429785;32;34020;-62
2023/07/11 11:26:50;;;;;;;12.05;6.60;;;;;;;32.81;32.88;99622.81;4422553;32;33543;-62
2023/07/11 11:29:40;;;;;;;11.02;5.28;;;;;;;32.85;32.96;99624.81;4421706;32;34237;-62
2023/07/11 11:32:34;;;;;;;12.98;6.05;;;;;;;33.31;32.41;99625.19;4428557;32;33508;-63
2023/07/11 11:35:27;;;;;;;11.18;6.30;;;;;;;32.97;32.37;99613.59;4428598;32;34819;-62
2023/07/11 11:38:04;;;;;;;8.15;5.65;;;;;;;32.90;33.00;99604.59;4423831;32;33502;-62
2023/07/11 11:40:37;;;;;;;9.75;6.65;;;;;;;32.95;33.21;99612.97;4380235;32;33685;-62
2023/07/11 11:43:13;;;;;;;10.75;6.37;;;;;;;33.15;32.87;99607.59;4381058;32;33487;-62
2023/07/11 11:45:44;;;;;;;11.02;6.65;;;;;;;33.84;31.84;99598.31;4378912;32;34661;-61
2023/07/11 11:48:19;;;;;;;8.90;6.30;;;;;;;33.06;32.51;99609.19;4372824;32;34494;-61
2023/07/11 11:50:50;;;;;;;10.88;6.90;;;;;;;33.43;31.64;99600.03;4379456;32;33041;-63